sensor_id;sensor_type;location;lat;lon;timestamp;P1;durP1;ratioP1;P2;durP2;ratioP2
24685;SDS011;12804;51.176;4.452;2023-04-15T00:01:27;5.28;;;3.05;;
24685;SDS011;12804;51.176;4.452;2023-04-15T00:03:54;5.95;;;3.28;;
24685;SDS011;12804;51.176;4.452;2023-04-15T00:06:20;4.95;;;3.25;;
24685;SDS011;12804;51.176;4.452;2023-04-15T00:08:47;5.28;;;3.45;;
24685;SDS011;12804;51.176;4.452;2023-04-15T00:11:15;6.60;;;3.33;;
24685;SDS011;12804;51.176;4.452;2023-04-15T00:13:41;5.88;;;3.00;;
24685;SDS011;12804;51.176;4.452;2023-04-15T00:16:08;5.30;;;3.47;;
24685;SDS011;12804;51.176;4.452;2023-04-15T00:18:35;5.28;;;3.35;;
24685;SDS011;12804;51.176;4.452;2023-04-15T00:21:01;8.20;;;3.95;;
24685;SDS011;12804;51.176;4.452;2023-04-15T00:23:28;6.60;;;3.55;;
24685;SDS011;12804;51.176;4.452;2023-04-15T00:25:55;4.85;;;3.13;;
24685;SDS011;12804;51.176;4.452;2023-04-15T00:28:21;6.15;;;3.10;;
24685;SDS011;12804;51.176;4.452;2023-04-15T00:30:46;4.95;;;3.10;;
24685;SDS011;12804;51.176;4.452;2023-04-15T00:33:13;8.43;;;3.50;;
24685;SDS011;12804;51.176;4.452;2023-04-15T00:35:40;7.03;;;3.60;;
24685;SDS011;12804;51.176;4.452;2023-04-15T00:38:07;5.95;;;3.78;;
24685;SDS011;12804;51.176;4.452;2023-04-15T00:40:33;5.47;;;3.20;;
24685;SDS011;12804;51.176;4.452;2023-04-15T00:42:59;7.57;;;3.60;;
24685;SDS011;12804;51.176;4.452;2023-04-15T00:45:25;6.60;;;3.42;;
24685;SDS011;12804;51.176;4.452;2023-04-15T00:47:53;5.50;;;3.42;;
24685;SDS011;12804;51.176;4.452;2023-04-15T00:50:19;8.10;;;3.53;;
24685;SDS011;12804;51.176;4.452;2023-04-15T00:52:45;6.82;;;3.78;;
24685;SDS011;12804;51.176;4.452;2023-04-15T00:55:11;6.13;;;3.30;;
24685;SDS011;12804;51.176;4.452;2023-04-15T00:57:38;6.40;;;3.55;;
24685;SDS011;12804;51.176;4.452;2023-04-15T01:00:04;7.82;;;3.95;;
24685;SDS011;12804;51.176;4.452;2023-04-15T01:02:33;4.25;;;3.60;;
24685;SDS011;12804;51.176;4.452;2023-04-15T01:05:00;5.70;;;3.50;;
24685;SDS011;12804;51.176;4.452;2023-04-15T01:07:28;6.20;;;3.80;;
24685;SDS011;12804;51.176;4.452;2023-04-15T01:09:54;4.70;;;3.70;;
24685;SDS011;12804;51.176;4.452;2023-04-15T01:12:21;7.28;;;3.72;;
24685;SDS011;12804;51.176;4.452;2023-04-15T01:14:48;5.93;;;3.88;;
24685;SDS011;12804;51.176;4.452;2023-04-15T01:17:14;6.28;;;3.90;;
24685;SDS011;12804;51.176;4.452;2023-04-15T01:19:41;7.18;;;3.80;;
24685;SDS011;12804;51.176;4.452;2023-04-15T01:22:08;5.55;;;3.78;;
24685;SDS011;12804;51.176;4.452;2023-04-15T01:24:36;7.07;;;3.75;;
24685;SDS011;12804;51.176;4.452;2023-04-15T01:27:03;6.95;;;3.88;;
24685;SDS011;12804;51.176;4.452;2023-04-15T01:29:30;5.32;;;3.60;;
24685;SDS011;12804;51.176;4.452;2023-04-15T01:31:56;7.68;;;4.18;;
24685;SDS011;12804;51.176;4.452;2023-04-15T01:34:24;6.43;;;4.72;;
24685;SDS011;12804;51.176;4.452;2023-04-15T01:36:52;8.80;;;4.75;;
24685;SDS011;12804;51.176;4.452;2023-04-15T01:39:20;6.65;;;3.90;;
24685;SDS011;12804;51.176;4.452;2023-04-15T01:41:46;6.22;;;3.88;;
24685;SDS011;12804;51.176;4.452;2023-04-15T01:44:12;7.55;;;4.28;;
24685;SDS011;12804;51.176;4.452;2023-04-15T01:46:38;7.15;;;4.18;;
24685;SDS011;12804;51.176;4.452;2023-04-15T01:49:04;6.05;;;3.92;;
24685;SDS011;12804;51.176;4.452;2023-04-15T01:51:31;6.43;;;4.15;;
24685;SDS011;12804;51.176;4.452;2023-04-15T01:53:57;6.75;;;4.00;;
24685;SDS011;12804;51.176;4.452;2023-04-15T01:56:23;6.35;;;4.10;;
24685;SDS011;12804;51.176;4.452;2023-04-15T01:58:49;5.45;;;3.95;;
24685;SDS011;12804;51.176;4.452;2023-04-15T02:01:15;7.55;;;4.38;;
24685;SDS011;12804;51.176;4.452;2023-04-15T02:03:43;8.82;;;4.80;;
24685;SDS011;12804;51.176;4.452;2023-04-15T02:06:10;6.43;;;4.57;;
24685;SDS011;12804;51.176;4.452;2023-04-15T02:08:36;6.75;;;4.13;;
24685;SDS011;12804;51.176;4.452;2023-04-15T02:11:05;5.70;;;4.00;;
24685;SDS011;12804;51.176;4.452;2023-04-15T02:13:31;7.85;;;4.15;;
24685;SDS011;12804;51.176;4.452;2023-04-15T02:15:57;6.78;;;4.35;;
24685;SDS011;12804;51.176;4.452;2023-04-15T02:18:23;5.60;;;4.10;;
24685;SDS011;12804;51.176;4.452;2023-04-15T02:20:50;6.63;;;4.38;;
24685;SDS011;12804;51.176;4.452;2023-04-15T02:23:16;4.78;;;3.72;;
24685;SDS011;12804;51.176;4.452;2023-04-15T02:25:42;5.88;;;3.60;;
24685;SDS011;12804;51.176;4.452;2023-04-15T02:28:08;6.75;;;4.40;;
24685;SDS011;12804;51.176;4.452;2023-04-15T02:30:34;8.65;;;4.40;;
24685;SDS011;12804;51.176;4.452;2023-04-15T02:33:00;6.50;;;4.07;;
24685;SDS011;12804;51.176;4.452;2023-04-15T02:35:27;6.63;;;4.15;;
24685;SDS011;12804;51.176;4.452;2023-04-15T02:37:53;7.32;;;4.00;;
24685;SDS011;12804;51.176;4.452;2023-04-15T02:40:19;8.98;;;4.15;;
24685;SDS011;12804;51.176;4.452;2023-04-15T02:42:45;7.15;;;4.05;;
24685;SDS011;12804;51.176;4.452;2023-04-15T02:45:14;7.93;;;3.70;;
24685;SDS011;12804;51.176;4.452;2023-04-15T02:47:42;6.40;;;3.67;;
24685;SDS011;12804;51.176;4.452;2023-04-15T02:50:09;6.88;;;4.00;;
24685;SDS011;12804;51.176;4.452;2023-04-15T02:52:40;7.57;;;3.92;;
24685;SDS011;12804;51.176;4.452;2023-04-15T02:55:07;6.47;;;3.42;;
24685;SDS011;12804;51.176;4.452;2023-04-15T02:57:35;8.55;;;4.10;;
24685;SDS011;12804;51.176;4.452;2023-04-15T03:00:05;6.32;;;3.72;;
24685;SDS011;12804;51.176;4.452;2023-04-15T03:02:35;6.68;;;3.67;;
24685;SDS011;12804;51.176;4.452;2023-04-15T03:05:03;8.10;;;3.75;;
24685;SDS011;12804;51.176;4.452;2023-04-15T03:07:30;7.07;;;4.20;;
24685;SDS011;12804;51.176;4.452;2023-04-15T03:09:56;8.35;;;3.92;;
24685;SDS011;12804;51.176;4.452;2023-04-15T03:12:22;7.95;;;3.63;;
24685;SDS011;12804;51.176;4.452;2023-04-15T03:14:50;8.80;;;4.18;;
24685;SDS011;12804;51.176;4.452;2023-04-15T03:17:16;7.45;;;3.70;;
24685;SDS011;12804;51.176;4.452;2023-04-15T03:19:43;4.88;;;3.70;;
24685;SDS011;12804;51.176;4.452;2023-04-15T03:22:10;9.52;;;4.00;;
24685;SDS011;12804;51.176;4.452;2023-04-15T03:24:35;6.68;;;3.92;;
24685;SDS011;12804;51.176;4.452;2023-04-15T03:27:01;7.10;;;3.85;;
24685;SDS011;12804;51.176;4.452;2023-04-15T03:29:27;7.20;;;3.97;;
24685;SDS011;12804;51.176;4.452;2023-04-15T03:31:53;6.00;;;4.07;;
24685;SDS011;12804;51.176;4.452;2023-04-15T03:34:19;9.93;;;4.20;;
24685;SDS011;12804;51.176;4.452;2023-04-15T03:36:45;6.03;;;3.67;;
24685;SDS011;12804;51.176;4.452;2023-04-15T03:39:11;6.80;;;4.25;;
24685;SDS011;12804;51.176;4.452;2023-04-15T03:41:37;9.35;;;4.63;;
24685;SDS011;12804;51.176;4.452;2023-04-15T03:44:03;7.75;;;4.15;;
24685;SDS011;12804;51.176;4.452;2023-04-15T03:46:29;8.95;;;3.88;;
24685;SDS011;12804;51.176;4.452;2023-04-15T03:48:54;8.90;;;4.07;;
24685;SDS011;12804;51.176;4.452;2023-04-15T03:51:20;5.60;;;4.00;;
24685;SDS011;12804;51.176;4.452;2023-04-15T03:53:46;9.40;;;4.50;;
24685;SDS011;12804;51.176;4.452;2023-04-15T03:56:12;9.25;;;3.97;;
24685;SDS011;12804;51.176;4.452;2023-04-15T03:58:37;6.93;;;4.00;;
24685;SDS011;12804;51.176;4.452;2023-04-15T04:01:03;6.60;;;3.88;;
24685;SDS011;12804;51.176;4.452;2023-04-15T04:03:30;8.27;;;4.30;;
24685;SDS011;12804;51.176;4.452;2023-04-15T04:05:55;7.43;;;4.10;;
24685;SDS011;12804;51.176;4.452;2023-04-15T04:08:21;7.53;;;3.97;;
24685;SDS011;12804;51.176;4.452;2023-04-15T04:10:47;7.78;;;4.25;;
24685;SDS011;12804;51.176;4.452;2023-04-15T04:13:13;5.50;;;4.00;;
24685;SDS011;12804;51.176;4.452;2023-04-15T04:15:39;7.05;;;3.85;;
24685;SDS011;12804;51.176;4.452;2023-04-15T04:18:04;7.40;;;4.40;;
24685;SDS011;12804;51.176;4.452;2023-04-15T04:20:30;6.57;;;4.13;;
24685;SDS011;12804;51.176;4.452;2023-04-15T04:22:56;9.65;;;4.70;;
24685;SDS011;12804;51.176;4.452;2023-04-15T04:25:22;6.47;;;4.00;;
24685;SDS011;12804;51.176;4.452;2023-04-15T04:27:48;5.35;;;4.32;;
24685;SDS011;12804;51.176;4.452;2023-04-15T04:30:14;8.10;;;4.45;;
24685;SDS011;12804;51.176;4.452;2023-04-15T04:32:41;8.60;;;4.43;;
24685;SDS011;12804;51.176;4.452;2023-04-15T04:35:06;6.75;;;4.63;;
24685;SDS011;12804;51.176;4.452;2023-04-15T04:37:33;8.07;;;4.70;;
24685;SDS011;12804;51.176;4.452;2023-04-15T04:39:58;8.38;;;5.30;;
24685;SDS011;12804;51.176;4.452;2023-04-15T04:42:24;9.90;;;5.00;;
24685;SDS011;12804;51.176;4.452;2023-04-15T04:44:50;8.15;;;4.50;;
24685;SDS011;12804;51.176;4.452;2023-04-15T04:47:16;8.77;;;5.47;;
24685;SDS011;12804;51.176;4.452;2023-04-15T04:49:42;8.27;;;5.53;;
24685;SDS011;12804;51.176;4.452;2023-04-15T04:52:08;7.70;;;4.50;;
24685;SDS011;12804;51.176;4.452;2023-04-15T04:54:34;9.50;;;5.03;;
24685;SDS011;12804;51.176;4.452;2023-04-15T04:57:00;9.80;;;5.32;;
24685;SDS011;12804;51.176;4.452;2023-04-15T04:59:26;8.40;;;5.00;;
24685;SDS011;12804;51.176;4.452;2023-04-15T05:01:52;11.18;;;5.38;;
24685;SDS011;12804;51.176;4.452;2023-04-15T05:04:18;11.75;;;5.47;;
24685;SDS011;12804;51.176;4.452;2023-04-15T05:06:43;13.35;;;5.90;;
24685;SDS011;12804;51.176;4.452;2023-04-15T05:09:09;7.60;;;5.55;;
24685;SDS011;12804;51.176;4.452;2023-04-15T05:11:35;9.55;;;5.70;;
24685;SDS011;12804;51.176;4.452;2023-04-15T05:14:01;7.93;;;5.55;;
24685;SDS011;12804;51.176;4.452;2023-04-15T05:16:27;12.57;;;5.85;;
24685;SDS011;12804;51.176;4.452;2023-04-15T05:18:53;6.43;;;5.60;;
24685;SDS011;12804;51.176;4.452;2023-04-15T05:21:19;9.40;;;5.75;;
24685;SDS011;12804;51.176;4.452;2023-04-15T05:23:45;9.32;;;5.65;;
24685;SDS011;12804;51.176;4.452;2023-04-15T05:26:11;10.20;;;5.70;;
24685;SDS011;12804;51.176;4.452;2023-04-15T05:28:37;8.95;;;5.95;;
24685;SDS011;12804;51.176;4.452;2023-04-15T05:31:03;7.97;;;5.60;;
24685;SDS011;12804;51.176;4.452;2023-04-15T05:33:29;10.52;;;6.43;;
24685;SDS011;12804;51.176;4.452;2023-04-15T05:35:54;9.82;;;6.10;;
24685;SDS011;12804;51.176;4.452;2023-04-15T05:38:20;9.82;;;6.22;;
24685;SDS011;12804;51.176;4.452;2023-04-15T05:40:46;11.68;;;6.43;;
24685;SDS011;12804;51.176;4.452;2023-04-15T05:43:12;12.98;;;6.95;;
24685;SDS011;12804;51.176;4.452;2023-04-15T05:45:38;11.77;;;6.30;;
24685;SDS011;12804;51.176;4.452;2023-04-15T05:48:03;8.48;;;6.03;;
24685;SDS011;12804;51.176;4.452;2023-04-15T05:50:29;8.77;;;6.82;;
24685;SDS011;12804;51.176;4.452;2023-04-15T05:52:55;13.95;;;7.78;;
24685;SDS011;12804;51.176;4.452;2023-04-15T05:55:21;8.93;;;7.22;;
24685;SDS011;12804;51.176;4.452;2023-04-15T05:57:46;12.18;;;7.18;;
24685;SDS011;12804;51.176;4.452;2023-04-15T06:00:12;10.30;;;7.78;;
24685;SDS011;12804;51.176;4.452;2023-04-15T06:02:39;9.25;;;7.18;;
24685;SDS011;12804;51.176;4.452;2023-04-15T06:05:05;10.02;;;7.53;;
24685;SDS011;12804;51.176;4.452;2023-04-15T06:07:34;11.93;;;8.27;;
24685;SDS011;12804;51.176;4.452;2023-04-15T06:10:01;10.52;;;8.13;;
24685;SDS011;12804;51.176;4.452;2023-04-15T06:12:28;15.63;;;9.20;;
24685;SDS011;12804;51.176;4.452;2023-04-15T06:14:53;13.57;;;9.18;;
24685;SDS011;12804;51.176;4.452;2023-04-15T06:17:19;14.27;;;9.05;;
24685;SDS011;12804;51.176;4.452;2023-04-15T06:19:45;14.02;;;10.05;;
24685;SDS011;12804;51.176;4.452;2023-04-15T06:22:11;12.93;;;8.90;;
24685;SDS011;12804;51.176;4.452;2023-04-15T06:24:37;10.68;;;9.57;;
24685;SDS011;12804;51.176;4.452;2023-04-15T06:27:02;12.75;;;10.02;;
24685;SDS011;12804;51.176;4.452;2023-04-15T06:29:28;13.90;;;9.52;;
24685;SDS011;12804;51.176;4.452;2023-04-15T06:31:54;15.23;;;10.32;;
24685;SDS011;12804;51.176;4.452;2023-04-15T06:34:20;13.00;;;10.65;;
24685;SDS011;12804;51.176;4.452;2023-04-15T06:36:46;14.20;;;9.75;;
24685;SDS011;12804;51.176;4.452;2023-04-15T06:39:12;25.52;;;11.30;;
24685;SDS011;12804;51.176;4.452;2023-04-15T06:41:38;14.85;;;10.65;;
24685;SDS011;12804;51.176;4.452;2023-04-15T06:44:05;17.35;;;11.20;;
24685;SDS011;12804;51.176;4.452;2023-04-15T06:46:31;17.83;;;10.85;;
24685;SDS011;12804;51.176;4.452;2023-04-15T06:48:57;17.02;;;11.07;;
24685;SDS011;12804;51.176;4.452;2023-04-15T06:51:23;15.02;;;11.02;;
24685;SDS011;12804;51.176;4.452;2023-04-15T06:53:49;12.18;;;10.60;;
24685;SDS011;12804;51.176;4.452;2023-04-15T06:56:14;13.90;;;10.68;;
24685;SDS011;12804;51.176;4.452;2023-04-15T06:58:40;13.15;;;10.35;;
24685;SDS011;12804;51.176;4.452;2023-04-15T07:01:06;14.93;;;10.45;;
24685;SDS011;12804;51.176;4.452;2023-04-15T07:03:32;16.63;;;10.80;;
24685;SDS011;12804;51.176;4.452;2023-04-15T07:05:57;12.23;;;10.50;;
24685;SDS011;12804;51.176;4.452;2023-04-15T07:08:23;18.42;;;11.70;;
24685;SDS011;12804;51.176;4.452;2023-04-15T07:10:49;13.50;;;10.45;;
24685;SDS011;12804;51.176;4.452;2023-04-15T07:13:15;14.85;;;10.30;;
24685;SDS011;12804;51.176;4.452;2023-04-15T07:15:41;16.00;;;10.63;;
24685;SDS011;12804;51.176;4.452;2023-04-15T07:18:07;14.68;;;9.95;;
24685;SDS011;12804;51.176;4.452;2023-04-15T07:20:33;15.82;;;10.32;;
24685;SDS011;12804;51.176;4.452;2023-04-15T07:23:00;14.77;;;10.20;;
24685;SDS011;12804;51.176;4.452;2023-04-15T07:25:26;16.90;;;10.00;;
24685;SDS011;12804;51.176;4.452;2023-04-15T07:27:51;14.65;;;9.50;;
24685;SDS011;12804;51.176;4.452;2023-04-15T07:30:20;12.73;;;9.88;;
24685;SDS011;12804;51.176;4.452;2023-04-15T07:32:46;14.20;;;9.95;;
24685;SDS011;12804;51.176;4.452;2023-04-15T07:35:12;12.15;;;9.40;;
24685;SDS011;12804;51.176;4.452;2023-04-15T07:37:38;12.02;;;9.30;;
24685;SDS011;12804;51.176;4.452;2023-04-15T07:40:04;13.77;;;8.93;;
24685;SDS011;12804;51.176;4.452;2023-04-15T07:42:32;11.82;;;9.05;;
24685;SDS011;12804;51.176;4.452;2023-04-15T07:44:58;10.00;;;8.02;;
24685;SDS011;12804;51.176;4.452;2023-04-15T07:47:24;10.63;;;8.02;;
24685;SDS011;12804;51.176;4.452;2023-04-15T07:49:51;12.82;;;8.23;;
24685;SDS011;12804;51.176;4.452;2023-04-15T07:52:17;10.63;;;7.47;;
24685;SDS011;12804;51.176;4.452;2023-04-15T07:54:43;9.07;;;7.50;;
24685;SDS011;12804;51.176;4.452;2023-04-15T07:57:09;10.48;;;7.60;;
24685;SDS011;12804;51.176;4.452;2023-04-15T07:59:35;9.88;;;7.63;;
24685;SDS011;12804;51.176;4.452;2023-04-15T08:02:01;12.13;;;7.65;;
24685;SDS011;12804;51.176;4.452;2023-04-15T08:04:27;11.65;;;7.63;;
24685;SDS011;12804;51.176;4.452;2023-04-15T08:06:53;9.57;;;6.85;;
24685;SDS011;12804;51.176;4.452;2023-04-15T08:09:19;12.73;;;7.60;;
24685;SDS011;12804;51.176;4.452;2023-04-15T08:11:47;14.30;;;7.10;;
24685;SDS011;12804;51.176;4.452;2023-04-15T08:14:13;9.45;;;7.03;;
24685;SDS011;12804;51.176;4.452;2023-04-15T08:16:39;9.55;;;6.80;;
24685;SDS011;12804;51.176;4.452;2023-04-15T08:19:05;9.05;;;6.70;;
24685;SDS011;12804;51.176;4.452;2023-04-15T08:21:31;10.50;;;7.28;;
24685;SDS011;12804;51.176;4.452;2023-04-15T08:23:57;9.80;;;6.85;;
24685;SDS011;12804;51.176;4.452;2023-04-15T08:26:23;7.82;;;6.40;;
24685;SDS011;12804;51.176;4.452;2023-04-15T08:28:49;8.23;;;6.72;;
24685;SDS011;12804;51.176;4.452;2023-04-15T08:31:15;9.35;;;7.22;;
24685;SDS011;12804;51.176;4.452;2023-04-15T08:33:42;10.90;;;7.20;;
24685;SDS011;12804;51.176;4.452;2023-04-15T08:36:08;8.73;;;7.18;;
24685;SDS011;12804;51.176;4.452;2023-04-15T08:38:34;7.60;;;6.25;;
24685;SDS011;12804;51.176;4.452;2023-04-15T08:41:02;8.38;;;6.28;;
24685;SDS011;12804;51.176;4.452;2023-04-15T08:43:34;8.23;;;5.75;;
24685;SDS011;12804;51.176;4.452;2023-04-15T08:46:07;7.57;;;6.30;;
24685;SDS011;12804;51.176;4.452;2023-04-15T08:48:34;9.15;;;6.60;;
24685;SDS011;12804;51.176;4.452;2023-04-15T08:51:04;8.13;;;6.03;;
24685;SDS011;12804;51.176;4.452;2023-04-15T08:53:31;7.95;;;6.55;;
24685;SDS011;12804;51.176;4.452;2023-04-15T08:55:58;7.90;;;6.70;;
24685;SDS011;12804;51.176;4.452;2023-04-15T08:58:28;7.20;;;6.22;;
24685;SDS011;12804;51.176;4.452;2023-04-15T09:00:55;6.43;;;5.85;;
24685;SDS011;12804;51.176;4.452;2023-04-15T09:03:21;7.63;;;6.03;;
24685;SDS011;12804;51.176;4.452;2023-04-15T09:05:47;7.28;;;6.28;;
24685;SDS011;12804;51.176;4.452;2023-04-15T09:08:14;8.63;;;5.95;;
24685;SDS011;12804;51.176;4.452;2023-04-15T09:10:41;6.47;;;5.80;;
24685;SDS011;12804;51.176;4.452;2023-04-15T09:13:07;7.65;;;5.90;;
24685;SDS011;12804;51.176;4.452;2023-04-15T09:15:33;7.53;;;5.43;;
24685;SDS011;12804;51.176;4.452;2023-04-15T09:18:03;6.85;;;5.93;;
24685;SDS011;12804;51.176;4.452;2023-04-15T09:20:30;6.15;;;5.20;;
24685;SDS011;12804;51.176;4.452;2023-04-15T09:23:14;5.70;;;5.20;;
24685;SDS011;12804;51.176;4.452;2023-04-15T09:25:41;6.32;;;5.07;;
24685;SDS011;12804;51.176;4.452;2023-04-15T09:28:07;4.80;;;4.40;;
24685;SDS011;12804;51.176;4.452;2023-04-15T09:30:33;6.10;;;4.75;;
24685;SDS011;12804;51.176;4.452;2023-04-15T09:33:00;5.88;;;4.50;;
24685;SDS011;12804;51.176;4.452;2023-04-15T09:35:29;4.95;;;4.40;;
24685;SDS011;12804;51.176;4.452;2023-04-15T09:38:08;6.20;;;4.80;;
24685;SDS011;12804;51.176;4.452;2023-04-15T09:40:35;5.75;;;4.22;;
24685;SDS011;12804;51.176;4.452;2023-04-15T09:43:07;5.93;;;4.00;;
24685;SDS011;12804;51.176;4.452;2023-04-15T09:45:35;6.20;;;4.25;;
24685;SDS011;12804;51.176;4.452;2023-04-15T09:50:50;6.18;;;3.72;;
24685;SDS011;12804;51.176;4.452;2023-04-15T09:53:21;4.97;;;3.35;;
24685;SDS011;12804;51.176;4.452;2023-04-15T09:55:49;4.65;;;3.50;;
24685;SDS011;12804;51.176;4.452;2023-04-15T09:58:20;6.05;;;3.75;;
24685;SDS011;12804;51.176;4.452;2023-04-15T10:00:51;3.75;;;3.15;;
24685;SDS011;12804;51.176;4.452;2023-04-15T10:03:19;4.35;;;3.70;;
24685;SDS011;12804;51.176;4.452;2023-04-15T10:05:47;5.45;;;3.55;;
24685;SDS011;12804;51.176;4.452;2023-04-15T10:08:18;6.20;;;3.50;;
24685;SDS011;12804;51.176;4.452;2023-04-15T10:10:46;3.85;;;3.45;;
24685;SDS011;12804;51.176;4.452;2023-04-15T10:13:16;4.82;;;3.45;;
24685;SDS011;12804;51.176;4.452;2023-04-15T10:15:44;4.60;;;3.60;;
24685;SDS011;12804;51.176;4.452;2023-04-15T10:18:20;3.90;;;3.58;;
24685;SDS011;12804;51.176;4.452;2023-04-15T10:20:49;6.07;;;3.47;;
24685;SDS011;12804;51.176;4.452;2023-04-15T10:23:15;3.97;;;2.67;;
24685;SDS011;12804;51.176;4.452;2023-04-15T10:25:43;4.40;;;2.90;;
24685;SDS011;12804;51.176;4.452;2023-04-15T10:28:11;3.45;;;3.00;;
24685;SDS011;12804;51.176;4.452;2023-04-15T10:30:38;3.78;;;2.97;;
24685;SDS011;12804;51.176;4.452;2023-04-15T10:33:04;4.53;;;3.30;;
24685;SDS011;12804;51.176;4.452;2023-04-15T10:35:31;6.47;;;3.67;;
24685;SDS011;12804;51.176;4.452;2023-04-15T10:38:00;4.60;;;3.38;;
24685;SDS011;12804;51.176;4.452;2023-04-15T10:40:29;4.65;;;3.65;;
24685;SDS011;12804;51.176;4.452;2023-04-15T10:42:57;3.70;;;3.00;;
24685;SDS011;12804;51.176;4.452;2023-04-15T10:45:24;6.78;;;3.42;;
24685;SDS011;12804;51.176;4.452;2023-04-15T10:47:57;5.13;;;3.75;;
24685;SDS011;12804;51.176;4.452;2023-04-15T10:50:25;3.38;;;3.08;;
24685;SDS011;12804;51.176;4.452;2023-04-15T10:52:54;4.82;;;2.95;;
24685;SDS011;12804;51.176;4.452;2023-04-15T10:55:24;3.03;;;2.40;;
24685;SDS011;12804;51.176;4.452;2023-04-15T10:57:52;3.10;;;2.45;;
24685;SDS011;12804;51.176;4.452;2023-04-15T11:00:19;2.88;;;2.67;;
24685;SDS011;12804;51.176;4.452;2023-04-15T11:05:22;2.87;;;2.57;;
24685;SDS011;12804;51.176;4.452;2023-04-15T11:08:03;3.28;;;2.92;;
24685;SDS011;12804;51.176;4.452;2023-04-15T11:13:02;4.70;;;2.90;;
24685;SDS011;12804;51.176;4.452;2023-04-15T11:15:42;3.40;;;3.10;;
24685;SDS011;12804;51.176;4.452;2023-04-15T11:18:13;3.80;;;2.90;;
24685;SDS011;12804;51.176;4.452;2023-04-15T11:20:42;4.28;;;2.40;;
24685;SDS011;12804;51.176;4.452;2023-04-15T11:23:10;3.95;;;2.70;;
24685;SDS011;12804;51.176;4.452;2023-04-15T11:25:36;4.10;;;2.50;;
24685;SDS011;12804;51.176;4.452;2023-04-15T11:28:02;2.78;;;2.25;;
24685;SDS011;12804;51.176;4.452;2023-04-15T11:30:29;3.40;;;2.20;;
24685;SDS011;12804;51.176;4.452;2023-04-15T11:33:01;2.63;;;2.42;;
24685;SDS011;12804;51.176;4.452;2023-04-15T11:35:29;3.72;;;3.10;;
24685;SDS011;12804;51.176;4.452;2023-04-15T11:37:55;3.90;;;2.90;;
24685;SDS011;12804;51.176;4.452;2023-04-15T11:40:22;3.15;;;1.88;;
24685;SDS011;12804;51.176;4.452;2023-04-15T11:43:12;2.08;;;1.40;;
24685;SDS011;12804;51.176;4.452;2023-04-15T11:45:36;2.85;;;1.50;;
24685;SDS011;12804;51.176;4.452;2023-04-15T11:48:09;3.95;;;2.10;;
24685;SDS011;12804;51.176;4.452;2023-04-15T11:50:37;2.97;;;2.08;;
24685;SDS011;12804;51.176;4.452;2023-04-15T11:53:07;5.22;;;2.15;;
24685;SDS011;12804;51.176;4.452;2023-04-15T11:55:47;2.80;;;2.03;;
24685;SDS011;12804;51.176;4.452;2023-04-15T12:00:54;3.28;;;1.83;;
24685;SDS011;12804;51.176;4.452;2023-04-15T12:03:23;2.17;;;1.98;;
24685;SDS011;12804;51.176;4.452;2023-04-15T12:11:46;2.80;;;2.50;;
24685;SDS011;12804;51.176;4.452;2023-04-15T12:14:32;4.22;;;2.60;;
24685;SDS011;12804;51.176;4.452;2023-04-15T12:16:58;3.42;;;2.40;;
24685;SDS011;12804;51.176;4.452;2023-04-15T12:19:27;2.95;;;2.60;;
24685;SDS011;12804;51.176;4.452;2023-04-15T12:21:58;3.17;;;2.40;;
24685;SDS011;12804;51.176;4.452;2023-04-15T12:24:25;3.03;;;2.13;;
24685;SDS011;12804;51.176;4.452;2023-04-15T12:26:52;3.42;;;1.92;;
24685;SDS011;12804;51.176;4.452;2023-04-15T12:29:25;3.22;;;2.05;;
24685;SDS011;12804;51.176;4.452;2023-04-15T12:31:56;2.88;;;2.15;;
24685;SDS011;12804;51.176;4.452;2023-04-15T12:34:30;4.82;;;2.22;;
24685;SDS011;12804;51.176;4.452;2023-04-15T12:36:58;6.32;;;1.90;;
24685;SDS011;12804;51.176;4.452;2023-04-15T12:39:26;4.07;;;1.70;;
24685;SDS011;12804;51.176;4.452;2023-04-15T12:41:54;3.80;;;1.60;;
24685;SDS011;12804;51.176;4.452;2023-04-15T12:44:21;3.63;;;2.20;;
24685;SDS011;12804;51.176;4.452;2023-04-15T12:46:48;4.70;;;2.13;;
24685;SDS011;12804;51.176;4.452;2023-04-15T12:49:14;1.67;;;1.58;;
24685;SDS011;12804;51.176;4.452;2023-04-15T12:51:43;3.30;;;1.30;;
24685;SDS011;12804;51.176;4.452;2023-04-15T12:54:09;5.00;;;1.77;;
24685;SDS011;12804;51.176;4.452;2023-04-15T12:56:35;2.10;;;1.50;;
24685;SDS011;12804;51.176;4.452;2023-04-15T12:59:01;3.50;;;1.40;;
24685;SDS011;12804;51.176;4.452;2023-04-15T13:01:27;3.80;;;1.73;;
24685;SDS011;12804;51.176;4.452;2023-04-15T13:03:53;2.60;;;1.80;;
24685;SDS011;12804;51.176;4.452;2023-04-15T13:06:20;3.45;;;1.70;;
24685;SDS011;12804;51.176;4.452;2023-04-15T13:08:46;2.28;;;1.45;;
24685;SDS011;12804;51.176;4.452;2023-04-15T13:11:11;3.22;;;1.80;;
24685;SDS011;12804;51.176;4.452;2023-04-15T13:13:37;3.28;;;1.77;;
24685;SDS011;12804;51.176;4.452;2023-04-15T13:16:03;2.55;;;1.52;;
24685;SDS011;12804;51.176;4.452;2023-04-15T13:18:30;4.85;;;1.50;;
24685;SDS011;12804;51.176;4.452;2023-04-15T13:20:56;2.45;;;1.50;;
24685;SDS011;12804;51.176;4.452;2023-04-15T13:23:21;2.50;;;1.15;;
24685;SDS011;12804;51.176;4.452;2023-04-15T13:25:47;2.90;;;0.93;;
24685;SDS011;12804;51.176;4.452;2023-04-15T13:28:13;1.35;;;0.70;;
24685;SDS011;12804;51.176;4.452;2023-04-15T13:30:39;1.70;;;0.70;;
24685;SDS011;12804;51.176;4.452;2023-04-15T13:33:05;1.95;;;0.70;;
24685;SDS011;12804;51.176;4.452;2023-04-15T13:35:31;2.45;;;0.63;;
24685;SDS011;12804;51.176;4.452;2023-04-15T13:37:57;1.17;;;0.70;;
24685;SDS011;12804;51.176;4.452;2023-04-15T13:40:23;1.83;;;0.60;;
24685;SDS011;12804;51.176;4.452;2023-04-15T13:42:50;0.90;;;0.70;;
24685;SDS011;12804;51.176;4.452;2023-04-15T13:45:17;1.27;;;0.70;;
24685;SDS011;12804;51.176;4.452;2023-04-15T13:47:43;1.63;;;0.82;;
24685;SDS011;12804;51.176;4.452;2023-04-15T13:50:09;2.50;;;0.90;;
24685;SDS011;12804;51.176;4.452;2023-04-15T13:52:35;2.50;;;1.25;;
24685;SDS011;12804;51.176;4.452;2023-04-15T13:55:04;2.63;;;0.90;;
24685;SDS011;12804;51.176;4.452;2023-04-15T13:57:31;2.00;;;0.90;;
24685;SDS011;12804;51.176;4.452;2023-04-15T13:59:57;2.35;;;1.17;;
24685;SDS011;12804;51.176;4.452;2023-04-15T14:02:22;1.85;;;1.00;;
24685;SDS011;12804;51.176;4.452;2023-04-15T14:04:48;2.33;;;1.00;;
24685;SDS011;12804;51.176;4.452;2023-04-15T14:07:14;2.08;;;1.10;;
24685;SDS011;12804;51.176;4.452;2023-04-15T14:09:40;2.17;;;1.20;;
24685;SDS011;12804;51.176;4.452;2023-04-15T14:12:07;2.85;;;1.42;;
24685;SDS011;12804;51.176;4.452;2023-04-15T14:14:32;2.75;;;1.60;;
24685;SDS011;12804;51.176;4.452;2023-04-15T14:16:58;3.67;;;1.73;;
24685;SDS011;12804;51.176;4.452;2023-04-15T14:19:24;1.92;;;1.52;;
24685;SDS011;12804;51.176;4.452;2023-04-15T14:21:50;3.50;;;1.60;;
24685;SDS011;12804;51.176;4.452;2023-04-15T14:24:16;2.95;;;1.40;;
24685;SDS011;12804;51.176;4.452;2023-04-15T14:26:42;3.85;;;1.80;;
24685;SDS011;12804;51.176;4.452;2023-04-15T14:29:08;1.67;;;1.55;;
24685;SDS011;12804;51.176;4.452;2023-04-15T14:31:35;1.83;;;1.50;;
24685;SDS011;12804;51.176;4.452;2023-04-15T14:34:01;2.65;;;1.80;;
24685;SDS011;12804;51.176;4.452;2023-04-15T14:36:28;1.70;;;1.60;;
24685;SDS011;12804;51.176;4.452;2023-04-15T14:38:54;2.33;;;1.60;;
24685;SDS011;12804;51.176;4.452;2023-04-15T14:41:20;5.68;;;1.98;;
24685;SDS011;12804;51.176;4.452;2023-04-15T14:43:47;2.35;;;1.52;;
24685;SDS011;12804;51.176;4.452;2023-04-15T14:46:13;3.42;;;1.50;;
24685;SDS011;12804;51.176;4.452;2023-04-15T14:48:39;2.65;;;1.00;;
24685;SDS011;12804;51.176;4.452;2023-04-15T14:51:05;2.85;;;1.42;;
24685;SDS011;12804;51.176;4.452;2023-04-15T14:53:31;2.35;;;1.40;;
24685;SDS011;12804;51.176;4.452;2023-04-15T14:55:57;2.53;;;1.42;;
24685;SDS011;12804;51.176;4.452;2023-04-15T14:58:23;2.33;;;1.20;;
24685;SDS011;12804;51.176;4.452;2023-04-15T15:00:48;2.72;;;1.30;;